createdAt,value
2023-03-27T00:02:08.863Z,2.17
2023-03-27T00:04:36.766Z,2.13
2023-03-27T00:07:03.453Z,2.13
2023-03-27T00:09:32.319Z,2.22
2023-03-27T00:12:00.826Z,2.28
2023-03-27T00:14:27.725Z,2.33
2023-03-27T00:16:54.344Z,2.42
2023-03-27T00:19:23.950Z,2.51
2023-03-27T00:21:50.556Z,2.67
2023-03-27T00:24:17.289Z,2.78
2023-03-27T00:26:44.325Z,2.85
2023-03-27T00:29:13.467Z,2.88
2023-03-27T00:31:40.128Z,2.91
2023-03-27T00:34:06.832Z,2.97
2023-03-27T00:36:33.394Z,3.01
2023-03-27T00:38:59.945Z,3.07
2023-03-27T00:41:26.576Z,3.10
2023-03-27T00:43:54.826Z,3.11
2023-03-27T00:46:31.823Z,3.12
2023-03-27T00:49:03.135Z,3.14
2023-03-27T00:51:31.214Z,3.15
2023-03-27T00:53:58.527Z,3.17
2023-03-27T00:56:25.236Z,3.18
2023-03-27T00:59:04.566Z,3.19
2023-03-27T01:01:32.240Z,3.15
2023-03-27T01:04:01.649Z,3.11
2023-03-27T01:06:30.083Z,3.08
2023-03-27T01:08:56.739Z,3.05
2023-03-27T01:11:57.453Z,3.03
2023-03-27T01:14:57.281Z,3.05
2023-03-27T01:17:23.808Z,3.14
2023-03-27T01:20:02.667Z,3.14
2023-03-27T01:22:52.604Z,3.13
2023-03-27T01:25:37.809Z,3.14
2023-03-27T01:28:26.512Z,3.11
2023-03-27T01:31:22.587Z,3.09
2023-03-27T01:34:03.767Z,3.09
2023-03-27T01:36:57.740Z,3.07
2023-03-27T01:39:32.950Z,3.07
2023-03-27T01:42:16.678Z,3.08
2023-03-27T01:44:46.751Z,3.11
2023-03-27T01:47:21.564Z,3.14
2023-03-27T01:50:08.173Z,3.14
2023-03-27T01:52:39.314Z,3.10
2023-03-27T01:55:12.320Z,3.13
2023-03-27T01:57:49.990Z,3.10
2023-03-27T02:00:22.225Z,3.11
2023-03-27T02:03:08.037Z,3.12
2023-03-27T02:05:40.302Z,3.08
2023-03-27T02:08:29.910Z,3.02
2023-03-27T02:10:59.330Z,3.00
2023-03-27T02:13:34.293Z,2.96
2023-03-27T02:16:02.718Z,2.94
2023-03-27T02:18:35.919Z,2.90
2023-03-27T02:21:03.252Z,2.81
2023-03-27T02:23:32.880Z,2.76
2023-03-27T02:26:00.148Z,2.74
2023-03-27T02:28:35.589Z,2.73
2023-03-27T02:31:43.653Z,2.71
2023-03-27T02:34:38.312Z,2.63
2023-03-27T02:37:16.115Z,2.59
2023-03-27T02:39:55.017Z,2.57
2023-03-27T02:42:48.489Z,2.53
2023-03-27T02:46:09.260Z,2.49
2023-03-27T02:48:57.076Z,2.43
2023-03-27T02:51:36.363Z,2.40
2023-03-27T02:54:17.045Z,2.33
2023-03-27T02:56:49.577Z,2.32
2023-03-27T02:59:22.698Z,2.29
2023-03-27T03:01:49.845Z,2.26
2023-03-27T03:04:29.951Z,2.20
2023-03-27T03:06:56.993Z,2.13
2023-03-27T03:09:25.233Z,2.08
2023-03-27T03:11:54.265Z,2.01
2023-03-27T03:14:25.984Z,1.90
2023-03-27T03:16:52.531Z,1.84
2023-03-27T03:19:19.111Z,1.80
2023-03-27T03:21:46.713Z,1.70
2023-03-27T03:24:13.321Z,1.63
2023-03-27T03:26:40.163Z,1.57
2023-03-27T03:29:07.132Z,1.54
2023-03-27T03:31:43.227Z,1.47
2023-03-27T03:34:16.319Z,1.45
2023-03-27T03:36:44.876Z,1.43
2023-03-27T03:39:12.692Z,1.40
2023-03-27T03:41:39.471Z,1.37
2023-03-27T03:44:06.404Z,1.36
2023-03-27T03:46:33.194Z,1.35
2023-03-27T03:49:00.430Z,1.35
2023-03-27T03:51:28.230Z,1.37
2023-03-27T03:53:54.865Z,1.37
2023-03-27T03:56:21.447Z,1.41
2023-03-27T03:58:48.194Z,1.38
2023-03-27T04:01:14.760Z,1.39
2023-03-27T04:03:42.134Z,1.37
2023-03-27T04:06:10.907Z,1.38
2023-03-27T04:08:39.023Z,1.36
2023-03-27T04:11:06.100Z,1.33
2023-03-27T04:13:32.649Z,1.32
2023-03-27T04:16:01.724Z,1.37
2023-03-27T04:18:35.551Z,1.37
2023-03-27T04:21:02.300Z,1.41
2023-03-27T04:23:31.921Z,1.41
2023-03-27T04:26:03.301Z,1.44
2023-03-27T04:28:34.218Z,1.43
2023-03-27T04:31:08.436Z,1.42
2023-03-27T04:33:39.390Z,1.42
2023-03-27T04:36:08.257Z,1.44
2023-03-27T04:38:37.045Z,1.45
2023-03-27T04:41:04.484Z,1.45
2023-03-27T04:43:31.062Z,1.47
2023-03-27T04:45:57.636Z,1.45
2023-03-27T04:48:24.218Z,1.45
2023-03-27T04:50:50.763Z,1.44
2023-03-27T04:53:20.440Z,1.46
2023-03-27T04:55:51.270Z,1.47
2023-03-27T04:58:18.372Z,1.45
2023-03-27T05:00:50.783Z,1.45
2023-03-27T05:03:19.095Z,1.44
2023-03-27T05:05:50.008Z,1.45
2023-03-27T05:08:17.253Z,1.43
2023-03-27T05:10:44.910Z,1.47
2023-03-27T05:13:11.701Z,1.43
2023-03-27T05:15:39.143Z,1.47
2023-03-27T05:18:07.238Z,1.47
2023-03-27T05:20:34.404Z,1.51
2023-03-27T05:23:01.071Z,1.52
2023-03-27T05:25:29.405Z,1.52
2023-03-27T05:27:56.005Z,1.56
2023-03-27T05:30:24.203Z,1.55
2023-03-27T05:32:52.500Z,1.56
2023-03-27T05:35:22.370Z,1.58
2023-03-27T05:37:52.021Z,1.57
2023-03-27T05:40:22.268Z,1.57
2023-03-27T05:42:50.372Z,1.57
2023-03-27T05:45:17.978Z,1.56
2023-03-27T05:47:55.696Z,1.57
2023-03-27T05:50:28.349Z,1.60
2023-03-27T05:53:00.721Z,1.63
2023-03-27T05:55:28.099Z,1.66
2023-03-27T05:57:55.244Z,1.69
2023-03-27T06:00:26.318Z,1.70
2023-03-27T06:02:58.512Z,1.74
2023-03-27T06:05:30.008Z,1.73
2023-03-27T06:07:59.106Z,1.77
2023-03-27T06:10:27.871Z,1.83
2023-03-27T06:13:02.778Z,1.90
2023-03-27T06:15:29.616Z,1.91
2023-03-27T06:17:56.583Z,1.94
2023-03-27T06:20:24.217Z,2.05
2023-03-27T06:22:53.080Z,2.13
2023-03-27T06:25:20.456Z,2.18
2023-03-27T06:27:48.441Z,2.19
2023-03-27T06:30:17.496Z,2.29
2023-03-27T06:32:49.499Z,2.32
2023-03-27T06:35:17.499Z,2.42
2023-03-27T06:37:48.890Z,2.58
2023-03-27T06:40:24.909Z,2.61
2023-03-27T06:42:57.588Z,2.72
2023-03-27T06:45:27.383Z,2.83
2023-03-27T06:48:16.955Z,2.93
2023-03-27T06:50:48.194Z,3.11
2023-03-27T06:53:26.685Z,3.20
2023-03-27T06:55:54.614Z,3.46
2023-03-27T06:58:21.834Z,3.58
2023-03-27T07:00:50.568Z,3.69
2023-03-27T07:03:19.026Z,3.72
2023-03-27T07:05:45.721Z,3.68
2023-03-27T07:08:23.660Z,3.59
2023-03-27T07:11:10.667Z,3.51
2023-03-27T07:13:40.902Z,3.52
2023-03-27T07:16:08.834Z,3.47
2023-03-27T07:18:36.150Z,3.38
2023-03-27T07:21:02.854Z,3.48
2023-03-27T07:23:29.996Z,3.49
2023-03-27T07:26:01.177Z,3.56
2023-03-27T07:28:27.845Z,3.53
2023-03-27T07:30:54.488Z,3.58
2023-03-27T07:33:21.217Z,3.43
2023-03-27T07:35:48.524Z,3.37
2023-03-27T07:38:16.077Z,3.28
2023-03-27T07:40:44.357Z,3.14
2023-03-27T07:43:11.043Z,2.96
2023-03-27T07:45:37.689Z,3.02
2023-03-27T07:48:09.199Z,3.14
2023-03-27T07:50:36.292Z,3.18
2023-03-27T07:53:03.967Z,3.10
2023-03-27T07:55:31.274Z,3.02
2023-03-27T07:58:02.427Z,3.04
2023-03-27T08:00:31.460Z,2.96
2023-03-27T08:03:09.075Z,3.01
2023-03-27T08:05:37.095Z,2.95
2023-03-27T08:08:04.881Z,2.88
2023-03-27T08:10:31.462Z,2.78
2023-03-27T08:12:58.035Z,2.72
2023-03-27T08:15:25.144Z,2.64
2023-03-27T08:17:56.564Z,2.60
2023-03-27T08:20:24.111Z,2.64
2023-03-27T08:22:52.750Z,2.65
2023-03-27T08:25:22.247Z,2.64
2023-03-27T08:27:48.946Z,2.70
2023-03-27T08:30:17.085Z,2.80
2023-03-27T08:32:44.076Z,2.98
2023-03-27T08:35:11.103Z,3.20
2023-03-27T08:37:38.080Z,3.43
2023-03-27T08:40:11.028Z,3.54
2023-03-27T08:42:41.595Z,3.73
2023-03-27T08:45:22.709Z,3.68
2023-03-27T08:48:00.743Z,3.40
2023-03-27T08:50:32.634Z,3.31
2023-03-27T08:53:00.505Z,3.22
2023-03-27T08:55:47.327Z,3.21
2023-03-27T08:58:20.128Z,3.26
2023-03-27T09:00:53.962Z,3.31
2023-03-27T09:03:27.919Z,3.30
2023-03-27T09:06:28.251Z,3.51
2023-03-27T09:09:07.149Z,3.70
2023-03-27T09:11:45.835Z,3.82
2023-03-27T09:14:22.597Z,3.91
2023-03-27T09:16:51.514Z,3.93
2023-03-27T09:19:32.864Z,3.88
2023-03-27T09:22:07.946Z,3.88
2023-03-27T09:24:47.320Z,4.02
2023-03-27T09:27:22.207Z,4.22
2023-03-27T09:30:05.853Z,4.29
2023-03-27T09:32:33.516Z,4.25
2023-03-27T09:35:00.814Z,4.06
2023-03-27T09:37:27.601Z,3.97
2023-03-27T09:39:55.465Z,3.89
2023-03-27T09:42:33.808Z,3.89
2023-03-27T09:45:04.554Z,3.93
2023-03-27T09:47:44.652Z,4.09
2023-03-27T09:50:32.742Z,4.27
2023-03-27T09:53:21.505Z,4.33
2023-03-27T09:55:58.825Z,4.22
2023-03-27T09:58:29.412Z,4.07
2023-03-27T10:01:26.201Z,4.00
2023-03-27T10:03:55.169Z,3.92
2023-03-27T10:06:38.667Z,3.81
2023-03-27T10:09:23.077Z,3.82
2023-03-27T10:11:51.279Z,3.85
2023-03-27T10:14:21.341Z,3.99
2023-03-27T10:16:48.314Z,4.05
2023-03-27T10:19:29.422Z,4.20
2023-03-27T10:22:01.034Z,4.52
2023-03-27T10:24:33.279Z,4.82
2023-03-27T10:27:04.432Z,4.95
2023-03-27T10:29:34.970Z,4.93
2023-03-27T10:32:06.181Z,4.75
2023-03-27T10:34:37.671Z,4.60
2023-03-27T10:37:26.574Z,4.56
2023-03-27T10:39:56.154Z,4.49
2023-03-27T10:42:27.805Z,4.52
2023-03-27T10:44:56.744Z,4.44
2023-03-27T10:47:31.483Z,4.41
2023-03-27T10:50:39.149Z,4.47
2023-03-27T10:53:05.850Z,4.45
2023-03-27T10:56:05.863Z,4.44
2023-03-27T10:58:41.460Z,4.38
2023-03-27T11:01:32.184Z,4.46
2023-03-27T11:04:25.272Z,4.61
2023-03-27T11:06:57.336Z,4.57
2023-03-27T11:09:31.075Z,4.31
2023-03-27T11:12:07.266Z,4.27
2023-03-27T11:14:46.079Z,4.42
2023-03-27T11:17:18.312Z,4.87
2023-03-27T11:19:52.674Z,5.14
2023-03-27T11:22:33.601Z,5.10
2023-03-27T11:25:24.212Z,4.85
2023-03-27T11:28:29.051Z,5.07
2023-03-27T11:31:11.742Z,5.11
2023-03-27T11:33:50.017Z,5.22
2023-03-27T11:36:22.826Z,5.03
2023-03-27T11:39:15.620Z,5.02
2023-03-27T11:41:47.543Z,5.00
2023-03-27T11:44:14.069Z,4.87
2023-03-27T11:46:56.636Z,4.70
2023-03-27T11:50:08.035Z,4.50
2023-03-27T11:52:47.910Z,4.39
2023-03-27T11:55:31.332Z,4.62
2023-03-27T11:58:05.055Z,4.94
2023-03-27T12:00:37.052Z,5.16
2023-03-27T12:03:21.876Z,4.98
2023-03-27T12:05:52.460Z,4.96
2023-03-27T12:08:24.906Z,4.80
2023-03-27T12:10:54.721Z,4.62
2023-03-27T12:13:58.133Z,4.61
2023-03-27T12:16:47.437Z,4.69
2023-03-27T12:19:28.366Z,4.85
2023-03-27T12:22:23.558Z,4.82
2023-03-27T12:25:15.541Z,4.73
2023-03-27T12:28:02.705Z,4.63
2023-03-27T12:30:47.729Z,4.56
2023-03-27T12:33:42.910Z,4.73
2023-03-27T12:36:24.361Z,5.00
2023-03-27T12:38:53.032Z,5.34
2023-03-27T12:41:29.013Z,5.67
2023-03-27T12:43:58.761Z,5.88
2023-03-27T12:46:26.459Z,5.77
2023-03-27T12:49:00.110Z,5.37
2023-03-27T12:52:04.205Z,5.01
2023-03-27T12:54:39.932Z,4.91
2023-03-27T12:57:18.607Z,4.76
2023-03-27T12:59:48.309Z,4.64
2023-03-27T13:02:14.998Z,4.62
2023-03-27T13:04:50.852Z,4.35
2023-03-27T13:07:23.218Z,4.30
2023-03-27T13:10:27.658Z,4.28
2023-03-27T13:13:18.980Z,4.20
2023-03-27T13:16:14.040Z,4.19
2023-03-27T13:18:54.398Z,4.20
2023-03-27T13:21:39.571Z,4.28
2023-03-27T13:24:18.214Z,4.46
2023-03-27T13:26:56.845Z,4.67
2023-03-27T13:29:27.020Z,4.83
2023-03-27T13:32:01.240Z,4.96
2023-03-27T13:34:34.237Z,5.13
2023-03-27T13:37:11.242Z,5.23
2023-03-27T13:39:59.254Z,5.22
2023-03-27T13:42:37.441Z,5.21
2023-03-27T13:45:17.526Z,5.17
2023-03-27T13:48:01.121Z,5.06
2023-03-27T13:51:00.185Z,5.09
2023-03-27T13:53:52.045Z,5.29
2023-03-27T13:56:39.950Z,5.53
2023-03-27T13:59:28.169Z,5.73
2023-03-27T14:02:12.883Z,5.75
2023-03-27T14:05:16.235Z,5.87
2023-03-27T14:08:28.200Z,5.94
2023-03-27T14:11:09.763Z,5.78
2023-03-27T14:13:57.808Z,5.79
2023-03-27T14:17:18.258Z,5.57
2023-03-27T14:19:51.003Z,5.45
2023-03-27T14:22:24.362Z,5.53
2023-03-27T14:25:03.031Z,5.60
2023-03-27T14:27:32.583Z,5.60
2023-03-27T14:30:15.579Z,5.54
2023-03-27T14:32:47.219Z,5.51
2023-03-27T14:35:30.749Z,5.51
2023-03-27T14:38:00.544Z,5.56
2023-03-27T14:40:30.999Z,5.54
2023-03-27T14:43:00.237Z,5.41
2023-03-27T14:45:30.148Z,5.18
2023-03-27T14:48:03.545Z,4.99
2023-03-27T14:50:31.553Z,4.80
2023-03-27T14:52:59.130Z,4.63
2023-03-27T14:55:30.558Z,4.65
2023-03-27T14:58:02.236Z,4.78
2023-03-27T15:00:33.493Z,5.04
2023-03-27T15:03:05.361Z,5.16
2023-03-27T15:05:32.336Z,5.06
2023-03-27T15:08:00.220Z,4.92
2023-03-27T15:10:31.664Z,4.82
2023-03-27T15:12:58.737Z,4.77
2023-03-27T15:15:25.322Z,4.78
2023-03-27T15:17:55.368Z,4.94
2023-03-27T15:20:27.402Z,5.05
2023-03-27T15:23:20.302Z,5.13
2023-03-27T15:25:56.075Z,5.11
2023-03-27T15:28:31.117Z,5.01
2023-03-27T15:31:01.014Z,4.92
2023-03-27T15:33:34.668Z,4.82
2023-03-27T15:36:07.085Z,4.77
2023-03-27T15:38:36.237Z,4.66
2023-03-27T15:41:22.843Z,4.50
2023-03-27T15:43:52.090Z,4.37
2023-03-27T15:46:20.394Z,4.22
2023-03-27T15:48:55.404Z,4.12
2023-03-27T15:51:21.964Z,4.08
2023-03-27T15:53:55.758Z,4.03
2023-03-27T15:56:38.727Z,3.99
2023-03-27T15:59:07.954Z,3.96
2023-03-27T16:01:37.616Z,3.93
2023-03-27T16:04:07.792Z,3.89
2023-03-27T16:06:39.556Z,3.85
2023-03-27T16:09:28.672Z,3.89
2023-03-27T16:11:57.169Z,3.94
2023-03-27T16:14:43.793Z,3.97
2023-03-27T16:17:19.065Z,4.04
2023-03-27T16:20:12.751Z,4.02
2023-03-27T16:22:40.107Z,4.01
2023-03-27T16:25:11.849Z,4.01
2023-03-27T16:27:45.470Z,3.97
2023-03-27T16:30:21.212Z,3.92
2023-03-27T16:32:47.847Z,3.90
2023-03-27T16:35:14.672Z,3.91
2023-03-27T16:37:41.505Z,3.92
2023-03-27T16:40:08.626Z,3.90
2023-03-27T16:42:35.148Z,3.88
2023-03-27T16:45:01.908Z,3.83
2023-03-27T16:47:28.486Z,3.81
2023-03-27T16:50:10.276Z,3.77
2023-03-27T16:52:37.831Z,3.66
2023-03-27T16:55:07.281Z,3.62
2023-03-27T16:57:34.655Z,3.53
2023-03-27T17:00:01.241Z,3.53
2023-03-27T17:02:28.855Z,3.51
2023-03-27T17:04:55.805Z,3.50
2023-03-27T17:07:24.911Z,3.40
2023-03-27T17:09:51.748Z,3.34
2023-03-27T17:12:18.621Z,3.28
2023-03-27T17:14:45.312Z,3.21
2023-03-27T17:17:11.941Z,3.16
2023-03-27T17:19:38.512Z,3.07
2023-03-27T17:22:05.106Z,3.03
2023-03-27T17:24:45.745Z,2.98
2023-03-27T17:27:20.373Z,2.88
2023-03-27T17:29:46.971Z,2.81
2023-03-27T17:32:13.534Z,2.74
2023-03-27T17:34:41.539Z,2.67
2023-03-27T17:37:08.145Z,2.59
2023-03-27T17:39:34.709Z,2.50
2023-03-27T17:42:01.428Z,2.46
2023-03-27T17:44:28.019Z,2.46
2023-03-27T17:46:54.704Z,2.40
2023-03-27T17:49:21.303Z,2.33
2023-03-27T17:51:47.835Z,2.26
2023-03-27T17:54:14.464Z,2.25
2023-03-27T17:56:45.031Z,2.24
2023-03-27T17:59:11.759Z,2.20
2023-03-27T18:01:38.828Z,2.13
2023-03-27T18:04:05.608Z,2.09
2023-03-27T18:06:32.259Z,2.04
2023-03-27T18:08:59.020Z,1.95
2023-03-27T18:11:25.889Z,1.86
2023-03-27T18:13:53.299Z,1.80
2023-03-27T18:16:21.836Z,1.70
2023-03-27T18:18:50.910Z,1.61
2023-03-27T18:21:17.485Z,1.51
2023-03-27T18:23:46.537Z,1.37
2023-03-27T18:26:14.397Z,1.19
2023-03-27T18:28:41.125Z,1.03
2023-03-27T18:31:09.936Z,0.82
2023-03-27T18:33:37.424Z,0.67
2023-03-27T18:36:10.656Z,0.50
2023-03-27T18:38:40.216Z,0.32
2023-03-27T18:41:07.257Z,0.16
2023-03-27T18:43:39.302Z,0.05
2023-03-27T18:46:07.619Z,-0.09
2023-03-27T18:48:35.056Z,-0.23
2023-03-27T18:51:03.949Z,-0.37
2023-03-27T18:53:31.053Z,-0.47
2023-03-27T18:56:00.786Z,-0.49
2023-03-27T18:58:28.733Z,-0.57
2023-03-27T19:00:56.862Z,-0.67
2023-03-27T19:03:25.762Z,-0.77
2023-03-27T19:05:52.718Z,-0.90
2023-03-27T19:08:20.195Z,-0.98
2023-03-27T19:10:46.994Z,-1.07
2023-03-27T19:13:13.857Z,-1.17
2023-03-27T19:15:41.881Z,-1.22
2023-03-27T19:18:08.918Z,-1.31
2023-03-27T19:20:50.186Z,-1.43
2023-03-27T19:23:21.862Z,-1.49
2023-03-27T19:25:49.845Z,-1.52
2023-03-27T19:28:16.847Z,-1.56
2023-03-27T19:30:43.431Z,-1.54
2023-03-27T19:33:11.539Z,-1.57
2023-03-27T19:35:40.994Z,-1.61
2023-03-27T19:38:07.660Z,-1.66
2023-03-27T19:40:34.455Z,-1.71
2023-03-27T19:43:01.102Z,-1.77
2023-03-27T19:45:27.867Z,-1.82
2023-03-27T19:47:54.483Z,-1.88
2023-03-27T19:50:22.880Z,-1.92
2023-03-27T19:53:05.151Z,-1.99
2023-03-27T19:55:35.332Z,-2.07
2023-03-27T19:58:04.630Z,-2.14
2023-03-27T20:00:32.231Z,-2.19
2023-03-27T20:03:01.825Z,-2.21
2023-03-27T20:05:29.770Z,-2.25
2023-03-27T20:07:56.470Z,-2.30
2023-03-27T20:10:23.066Z,-2.34
2023-03-27T20:12:49.620Z,-2.37
2023-03-27T20:15:16.578Z,-2.36
2023-03-27T20:17:43.774Z,-2.35
2023-03-27T20:20:11.577Z,-2.30
2023-03-27T20:22:50.176Z,-2.23
2023-03-27T20:25:21.338Z,-2.19
2023-03-27T20:27:52.867Z,-2.20
2023-03-27T20:30:19.535Z,-2.23
2023-03-27T20:32:46.272Z,-2.27
2023-03-27T20:35:22.839Z,-2.30
2023-03-27T20:37:56.605Z,-2.35
2023-03-27T20:40:24.240Z,-2.40
2023-03-27T20:43:03.121Z,-2.45
2023-03-27T20:45:30.867Z,-2.50
2023-03-27T20:48:04.027Z,-2.55
2023-03-27T20:50:31.555Z,-2.58
2023-03-27T20:52:58.205Z,-2.63
2023-03-27T20:55:33.759Z,-2.65
2023-03-27T20:58:06.433Z,-2.67
2023-03-27T21:00:33.259Z,-2.69
2023-03-27T21:02:59.918Z,-2.70
2023-03-27T21:05:27.663Z,-2.71
2023-03-27T21:07:54.241Z,-2.67
2023-03-27T21:10:21.336Z,-2.65
2023-03-27T21:12:48.433Z,-2.55
2023-03-27T21:15:15.354Z,-2.45
2023-03-27T21:17:42.095Z,-2.33
2023-03-27T21:20:10.278Z,-2.14
2023-03-27T21:22:36.831Z,-1.97
2023-03-27T21:25:03.527Z,-1.85
2023-03-27T21:27:31.020Z,-1.66
2023-03-27T21:29:57.595Z,-1.53
2023-03-27T21:32:24.336Z,-1.41
2023-03-27T21:34:50.923Z,-1.31
2023-03-27T21:37:17.503Z,-1.24
2023-03-27T21:39:44.067Z,-1.23
2023-03-27T21:42:10.702Z,-1.21
2023-03-27T21:44:37.290Z,-1.26
2023-03-27T21:47:03.872Z,-1.29
2023-03-27T21:49:30.574Z,-1.31
2023-03-27T21:51:57.235Z,-1.36
2023-03-27T21:54:23.834Z,-1.40
2023-03-27T21:56:50.515Z,-1.42
2023-03-27T21:59:17.082Z,-1.44
2023-03-27T22:01:43.705Z,-1.47
2023-03-27T22:04:10.531Z,-1.50
2023-03-27T22:06:37.151Z,-1.52
2023-03-27T22:09:06.332Z,-1.51
2023-03-27T22:11:32.882Z,-1.44
2023-03-27T22:13:59.791Z,-1.43
2023-03-27T22:16:26.506Z,-1.40
2023-03-27T22:18:53.154Z,-1.34
2023-03-27T22:21:25.812Z,-1.27
2023-03-27T22:23:56.581Z,-1.21
2023-03-27T22:26:29.782Z,-1.11
2023-03-27T22:28:57.111Z,-0.97
2023-03-27T22:31:24.724Z,-0.87
2023-03-27T22:33:51.278Z,-0.78
2023-03-27T22:36:19.259Z,-0.74
2023-03-27T22:38:46.523Z,-0.69
2023-03-27T22:41:14.660Z,-0.65
2023-03-27T22:43:41.918Z,-0.61
2023-03-27T22:46:12.259Z,-0.59
2023-03-27T22:48:39.291Z,-0.54
2023-03-27T22:51:07.092Z,-0.48
2023-03-27T22:53:34.253Z,-0.34
2023-03-27T22:56:01.975Z,-0.16
2023-03-27T22:58:29.872Z,0.00
2023-03-27T23:00:56.468Z,0.13
2023-03-27T23:03:25.687Z,0.23
2023-03-27T23:05:53.363Z,0.26
2023-03-27T23:08:24.023Z,0.28
2023-03-27T23:10:57.326Z,0.32
2023-03-27T23:13:26.066Z,0.38
2023-03-27T23:15:53.203Z,0.49
2023-03-27T23:18:27.270Z,0.58
2023-03-27T23:21:02.014Z,0.65
2023-03-27T23:23:30.258Z,0.71
2023-03-27T23:26:00.555Z,0.65
2023-03-27T23:28:30.923Z,0.59
2023-03-27T23:30:59.689Z,0.53
2023-03-27T23:33:29.298Z,0.46
2023-03-27T23:36:10.807Z,0.42
2023-03-27T23:38:38.115Z,0.43
2023-03-27T23:41:06.353Z,0.47
2023-03-27T23:43:33.189Z,0.53
2023-03-27T23:46:00.007Z,0.57
2023-03-27T23:48:28.242Z,0.62
2023-03-27T23:50:56.018Z,0.65
2023-03-27T23:53:25.940Z,0.56
2023-03-27T23:55:52.899Z,0.42
2023-03-27T23:58:20.046Z,0.33
